createdAt,value
2018-11-11T20:48:27.972Z,99619.25
2018-11-11T20:51:31.487Z,99604.90
2018-11-11T20:54:34.708Z,99600.86
2018-11-11T20:57:38.548Z,99609.57
2018-11-11T21:00:42.717Z,99624.97
2018-11-11T21:03:46.147Z,99629.13
2018-11-11T21:06:50.950Z,99617.06
2018-11-11T21:09:54.573Z,99611.83
2018-11-11T21:13:02.090Z,99610.09
2018-11-11T21:16:06.416Z,99605.13
2018-11-11T21:19:11.226Z,99600.00
2018-11-11T21:22:15.670Z,99586.91
2018-11-11T21:25:19.619Z,99572.81
2018-11-11T21:28:24.018Z,99603.89
2018-11-11T21:31:27.618Z,99608.50
2018-11-11T21:34:31.853Z,99605.31
2018-11-11T21:37:35.423Z,99633.75
2018-11-11T21:40:39.001Z,99629.36
2018-11-11T21:43:42.435Z,99618.92
2018-11-11T21:46:47.184Z,99624.91
2018-11-11T21:49:52.002Z,99619.51
2018-11-11T21:56:50.060Z,99632.64
2018-11-11T21:59:53.477Z,99630.50
2018-11-11T22:02:57.146Z,99634.80
2018-11-11T22:06:01.270Z,99650.15
2018-11-11T22:09:07.819Z,99655.77
2018-11-11T22:12:12.192Z,99641.25
2018-11-11T22:15:15.175Z,99635.27
2018-11-11T22:18:18.189Z,99644.17
2018-11-11T22:21:23.574Z,99662.64
2018-11-11T22:24:26.641Z,99667.44
2018-11-11T22:27:30.039Z,99661.32
2018-11-11T22:30:33.224Z,99673.02
2018-11-11T22:33:36.153Z,99670.84
2018-11-11T22:36:39.189Z,99685.08
2018-11-11T22:39:43.213Z,99697.25
2018-11-11T22:42:46.877Z,99705.67
2018-11-11T22:45:50.058Z,99713.59
2018-11-11T22:48:53.322Z,99708.61
2018-11-11T22:51:56.257Z,99710.55
2018-11-11T22:54:59.344Z,99715.32
2018-11-11T22:58:02.402Z,99710.02
2018-11-11T23:01:11.106Z,99711.05
2018-11-11T23:04:15.351Z,99716.98
2018-11-11T23:07:18.372Z,99725.44
2018-11-11T23:10:21.609Z,99726.93
2018-11-11T23:13:24.538Z,99715.70
2018-11-11T23:16:27.473Z,99725.48
2018-11-11T23:19:30.433Z,99720.63
2018-11-11T23:22:40.454Z,99709.70
2018-11-11T23:25:43.386Z,99707.41
2018-11-11T23:28:46.719Z,99716.20
2018-11-11T23:31:49.684Z,99712.91
2018-11-11T23:34:53.288Z,99714.38
2018-11-11T23:37:56.249Z,99723.74
2018-11-11T23:40:59.193Z,99723.12
2018-11-11T23:44:03.648Z,99724.08
2018-11-11T23:47:06.665Z,99712.30
2018-11-11T23:50:15.657Z,99711.47
2018-11-11T23:53:18.594Z,99710.14
2018-11-11T23:56:21.577Z,99714.05
2018-11-11T23:59:24.518Z,99715.57
